Time;durP1;ratioP1;P1;durP2;ratioP2;P2;SDS_P1;SDS_P2;PMS_P1;PMS_P2;Temp;Humidity;BMP_temperature;BMP_pressure;BME280_temperature;BME280_humidity;BME280_pressure;Samples;Min_cycle;Max_cycle;Signal;HPM_P1;HPM_P2
2023/05/09 00:00:56;;;;;;;43.67;21.73;;;;;;;;;;5003885;28;20182;-74
2023/05/09 00:05:50;;;;;;;46.85;22.80;;;;;;;;;;4990981;28;20223;-68
2023/05/09 00:08:16;;;;;;;50.47;22.73;;;;;;;;;;4990815;28;20178;-69
2023/05/09 00:10:41;;;;;;;52.85;24.25;;;;;;;;;;4991156;28;20176;-69
2023/05/09 00:13:06;;;;;;;50.35;23.67;;;;;;;;;;4992312;28;20545;-68
2023/05/09 00:15:32;;;;;;;52.88;25.20;;;;;;;;;;4991682;28;20191;-69
2023/05/09 00:17:57;;;;;;;52.50;24.98;;;;;;;;;;4989296;28;20211;-69
2023/05/09 00:20:22;;;;;;;54.47;25.42;;;;;;;;;;4991591;28;20641;-68
2023/05/09 00:22:47;;;;;;;47.67;23.10;;;;;;;;;;4991157;28;20190;-69
2023/05/09 00:25:12;;;;;;;47.58;23.00;;;;;;;;;;4990777;28;20199;-69
2023/05/09 00:27:38;;;;;;;54.25;24.30;;;;;;;;;;4988125;28;20222;-68
2023/05/09 00:30:04;;;;;;;44.90;23.45;;;;;;;;;;4986074;28;20665;-69
2023/05/09 00:32:29;;;;;;;53.55;24.25;;;;;;;;;;4990615;28;20179;-68
2023/05/09 00:34:54;;;;;;;46.47;22.98;;;;;;;;;;4992903;28;20286;-68
2023/05/09 00:37:20;;;;;;;42.28;21.98;;;;;;;;;;4992538;28;20179;-69
2023/05/09 00:39:46;;;;;;;49.05;22.17;;;;;;;;;;4992006;28;20614;-69
2023/05/09 00:42:11;;;;;;;48.03;22.52;;;;;;;;;;4991060;28;20295;-69
2023/05/09 00:44:36;;;;;;;43.20;21.83;;;;;;;;;;4988043;28;20713;-68
2023/05/09 00:47:01;;;;;;;41.70;21.30;;;;;;;;;;4993075;28;20233;-69
2023/05/09 00:49:26;;;;;;;42.90;20.58;;;;;;;;;;4984598;28;20200;-69
2023/05/09 00:51:52;;;;;;;42.22;21.17;;;;;;;;;;4995849;28;20222;-68
2023/05/09 00:54:17;;;;;;;39.50;21.33;;;;;;;;;;4995633;28;20202;-68
2023/05/09 00:56:43;;;;;;;38.72;19.67;;;;;;;;;;4990901;28;20176;-68
2023/05/09 00:59:08;;;;;;;40.78;20.77;;;;;;;;;;4997331;28;20176;-68
2023/05/09 01:01:33;;;;;;;44.22;20.83;;;;;;;;;;4991219;28;20271;-68
2023/05/09 01:03:59;;;;;;;39.70;20.90;;;;;;;;;;4978262;28;20221;-68
2023/05/09 01:06:42;;;;;;;41.97;20.80;;;;;;;;;;4983346;28;20183;-67
2023/05/09 01:09:25;;;;;;;37.67;20.55;;;;;;;;;;4982686;28;20207;-68
2023/05/09 01:12:11;;;;;;;39.17;20.75;;;;;;;;;;4981695;28;20617;-68
2023/05/09 01:14:57;;;;;;;41.35;21.05;;;;;;;;;;4952796;28;20628;-68
2023/05/09 01:17:51;;;;;;;36.83;18.33;;;;;;;;;;4986066;28;20297;-68
2023/05/09 01:20:46;;;;;;;39.38;21.10;;;;;;;;;;4978050;28;20199;-68
2023/05/09 01:23:17;;;;;;;41.33;18.38;;;;;;;;;;4989443;28;20654;-68
2023/05/09 01:25:46;;;;;;;36.25;18.90;;;;;;;;;;4989537;28;20206;-68
2023/05/09 01:28:26;;;;;;;34.90;18.88;;;;;;;;;;4988475;28;20183;-68
2023/05/09 01:30:52;;;;;;;35.50;19.30;;;;;;;;;;4981510;28;20183;-68
2023/05/09 01:33:18;;;;;;;33.13;17.63;;;;;;;;;;4982944;28;20267;-68
2023/05/09 01:35:47;;;;;;;30.30;17.83;;;;;;;;;;4981901;28;20270;-68
2023/05/09 01:38:14;;;;;;;34.08;19.08;;;;;;;;;;4990275;28;20181;-68
2023/05/09 01:40:40;;;;;;;35.70;18.58;;;;;;;;;;4992710;28;20609;-68
2023/05/09 01:43:08;;;;;;;30.13;17.30;;;;;;;;;;4993020;28;20187;-68
2023/05/09 01:45:35;;;;;;;30.85;18.20;;;;;;;;;;4985345;28;20204;-68
2023/05/09 01:48:01;;;;;;;33.63;18.48;;;;;;;;;;4988089;28;20191;-68
2023/05/09 01:50:28;;;;;;;32.03;17.77;;;;;;;;;;4988349;28;20211;-68
2023/05/09 01:52:54;;;;;;;30.55;17.45;;;;;;;;;;4996466;28;20179;-68
2023/05/09 01:55:21;;;;;;;27.67;14.90;;;;;;;;;;4988824;28;20199;-68
2023/05/09 01:57:47;;;;;;;28.27;16.48;;;;;;;;;;4979846;28;20168;-68
2023/05/09 02:00:13;;;;;;;28.70;15.85;;;;;;;;;;4990132;28;20219;-67
2023/05/09 02:02:39;;;;;;;31.58;17.05;;;;;;;;;;4986154;28;20210;-68
2023/05/09 02:05:05;;;;;;;27.73;14.60;;;;;;;;;;4994682;28;20688;-68
2023/05/09 02:07:31;;;;;;;26.48;15.25;;;;;;;;;;4996100;28;20176;-68
2023/05/09 02:09:57;;;;;;;32.42;16.67;;;;;;;;;;4985494;28;20254;-68
2023/05/09 02:12:22;;;;;;;31.75;15.90;;;;;;;;;;4988867;28;20186;-68
2023/05/09 02:14:48;;;;;;;28.35;15.20;;;;;;;;;;4982963;28;20221;-68
2023/05/09 02:17:15;;;;;;;29.77;15.68;;;;;;;;;;4984763;28;20175;-68
2023/05/09 02:19:41;;;;;;;28.02;16.00;;;;;;;;;;4984813;28;20186;-68
2023/05/09 02:22:06;;;;;;;24.58;14.60;;;;;;;;;;4985571;28;20183;-68
2023/05/09 02:24:33;;;;;;;27.55;15.13;;;;;;;;;;4979212;28;20622;-68
2023/05/09 02:26:58;;;;;;;26.33;15.18;;;;;;;;;;4984418;28;20175;-68
2023/05/09 02:29:27;;;;;;;29.35;16.10;;;;;;;;;;4983336;28;22116;-68
2023/05/09 02:31:53;;;;;;;29.85;15.27;;;;;;;;;;4982941;28;20179;-68
2023/05/09 02:34:18;;;;;;;23.10;14.57;;;;;;;;;;4983293;28;20196;-67
2023/05/09 02:36:44;;;;;;;26.38;14.18;;;;;;;;;;4984580;28;20184;-68
2023/05/09 02:39:10;;;;;;;27.48;15.13;;;;;;;;;;4991550;28;20176;-67
2023/05/09 02:41:35;;;;;;;24.58;13.90;;;;;;;;;;4994423;28;20183;-68
2023/05/09 02:44:00;;;;;;;23.88;14.70;;;;;;;;;;4992459;28;20209;-68
2023/05/09 02:46:25;;;;;;;26.95;14.25;;;;;;;;;;4984656;28;20561;-68
2023/05/09 02:48:51;;;;;;;23.90;14.32;;;;;;;;;;4990094;28;20208;-68
2023/05/09 02:51:16;;;;;;;24.45;14.27;;;;;;;;;;4993469;28;20262;-68
2023/05/09 02:53:42;;;;;;;26.88;15.00;;;;;;;;;;4995531;28;20207;-68
2023/05/09 02:56:08;;;;;;;23.55;13.48;;;;;;;;;;4998340;28;20183;-68
2023/05/09 02:58:33;;;;;;;23.75;13.32;;;;;;;;;;4994110;28;20558;-68
2023/05/09 03:00:58;;;;;;;20.55;13.40;;;;;;;;;;4998118;28;20200;-68
2023/05/09 03:03:24;;;;;;;26.40;13.93;;;;;;;;;;4989889;28;20262;-68
2023/05/09 03:05:49;;;;;;;24.90;13.55;;;;;;;;;;4991453;28;20184;-68
2023/05/09 03:08:14;;;;;;;27.10;15.25;;;;;;;;;;4992075;28;20187;-68
2023/05/09 03:10:40;;;;;;;29.27;15.80;;;;;;;;;;4992178;28;20209;-67
2023/05/09 03:13:05;;;;;;;21.27;13.20;;;;;;;;;;4996264;28;20201;-68
2023/05/09 03:15:30;;;;;;;21.40;13.05;;;;;;;;;;4994988;28;20192;-68
2023/05/09 03:17:55;;;;;;;26.98;14.68;;;;;;;;;;4996288;28;20718;-68
2023/05/09 03:20:20;;;;;;;23.15;14.38;;;;;;;;;;4993596;28;20257;-68
2023/05/09 03:22:47;;;;;;;21.63;13.65;;;;;;;;;;4997377;28;20190;-67
2023/05/09 03:25:12;;;;;;;23.52;13.73;;;;;;;;;;4992691;28;20581;-68
2023/05/09 03:27:37;;;;;;;23.20;13.20;;;;;;;;;;4993184;28;20187;-68
2023/05/09 03:30:03;;;;;;;23.23;13.38;;;;;;;;;;4992809;28;20199;-68
2023/05/09 03:32:28;;;;;;;23.45;12.95;;;;;;;;;;4991774;28;20656;-68
2023/05/09 03:34:53;;;;;;;20.58;12.60;;;;;;;;;;4988262;28;20230;-68
2023/05/09 03:37:18;;;;;;;22.77;14.10;;;;;;;;;;5000624;28;20633;-68
2023/05/09 03:39:44;;;;;;;24.60;13.85;;;;;;;;;;4999764;28;20198;-68
2023/05/09 03:42:09;;;;;;;19.83;12.25;;;;;;;;;;4989771;28;20188;-68
2023/05/09 03:44:34;;;;;;;21.75;12.85;;;;;;;;;;4992304;28;20229;-68
2023/05/09 03:47:00;;;;;;;19.45;12.73;;;;;;;;;;4993836;28;20198;-68
2023/05/09 03:49:25;;;;;;;20.88;13.25;;;;;;;;;;4991096;28;20243;-68
2023/05/09 03:51:50;;;;;;;18.70;12.13;;;;;;;;;;4996662;28;20176;-68
2023/05/09 03:54:15;;;;;;;21.02;12.52;;;;;;;;;;5003278;28;20286;-68
2023/05/09 03:56:40;;;;;;;21.15;12.57;;;;;;;;;;4989133;28;20263;-68
2023/05/09 03:59:06;;;;;;;19.58;12.23;;;;;;;;;;4993390;28;20176;-68
2023/05/09 04:01:31;;;;;;;20.38;13.18;;;;;;;;;;4998347;28;20183;-68
2023/05/09 04:03:56;;;;;;;22.98;13.65;;;;;;;;;;4994062;28;20576;-68
2023/05/09 04:06:21;;;;;;;22.63;12.43;;;;;;;;;;4993344;28;20566;-68
2023/05/09 04:08:47;;;;;;;26.95;14.07;;;;;;;;;;4995921;28;20334;-68
2023/05/09 04:11:12;;;;;;;21.08;11.95;;;;;;;;;;4996412;28;20175;-68
2023/05/09 04:13:37;;;;;;;28.90;13.27;;;;;;;;;;4996363;28;20234;-68
2023/05/09 04:16:03;;;;;;;21.92;13.35;;;;;;;;;;4995332;28;20665;-68
2023/05/09 04:18:29;;;;;;;23.45;14.60;;;;;;;;;;4996160;28;20184;-68
2023/05/09 04:20:54;;;;;;;23.58;13.68;;;;;;;;;;4997863;28;20214;-68
2023/05/09 04:23:20;;;;;;;22.10;12.95;;;;;;;;;;4996689;28;20214;-68
2023/05/09 04:25:45;;;;;;;24.80;13.73;;;;;;;;;;4991543;28;20318;-68
2023/05/09 04:28:10;;;;;;;25.77;14.27;;;;;;;;;;4997872;28;20604;-68
2023/05/09 04:30:36;;;;;;;27.80;14.23;;;;;;;;;;4987169;28;20203;-68
2023/05/09 04:33:01;;;;;;;27.92;14.60;;;;;;;;;;4982065;28;20176;-68
2023/05/09 04:35:26;;;;;;;26.00;15.38;;;;;;;;;;4986989;28;20222;-67
2023/05/09 04:37:52;;;;;;;25.52;15.13;;;;;;;;;;4990614;28;20176;-68
2023/05/09 04:40:17;;;;;;;21.15;14.50;;;;;;;;;;4983315;28;20190;-68
2023/05/09 04:42:42;;;;;;;23.33;14.18;;;;;;;;;;4992671;28;20187;-68
2023/05/09 04:45:08;;;;;;;25.33;14.30;;;;;;;;;;4987275;28;20199;-68
2023/05/09 04:47:33;;;;;;;26.50;13.32;;;;;;;;;;4988268;28;20191;-68
2023/05/09 04:49:58;;;;;;;25.30;13.75;;;;;;;;;;4986822;28;20196;-68
2023/05/09 04:52:23;;;;;;;23.10;14.02;;;;;;;;;;4989551;28;20176;-68
2023/05/09 04:54:49;;;;;;;22.35;13.82;;;;;;;;;;4999180;28;20579;-68
2023/05/09 04:57:15;;;;;;;23.55;14.02;;;;;;;;;;4986536;28;20176;-68
2023/05/09 04:59:40;;;;;;;21.55;12.80;;;;;;;;;;4980638;28;20187;-68
2023/05/09 05:02:05;;;;;;;30.65;14.60;;;;;;;;;;4985877;28;20314;-68
2023/05/09 05:04:31;;;;;;;22.33;14.02;;;;;;;;;;4989922;28;20261;-68
2023/05/09 05:06:56;;;;;;;22.23;12.25;;;;;;;;;;4996516;28;20211;-69
2023/05/09 05:09:21;;;;;;;21.65;12.63;;;;;;;;;;4994250;28;20206;-68
2023/05/09 05:11:47;;;;;;;22.55;13.07;;;;;;;;;;4992097;28;20233;-68
2023/05/09 05:14:12;;;;;;;22.30;13.65;;;;;;;;;;4994730;28;20203;-68
2023/05/09 05:16:37;;;;;;;21.27;13.45;;;;;;;;;;4987086;28;20672;-68
2023/05/09 05:19:03;;;;;;;20.67;12.07;;;;;;;;;;4985286;28;20187;-68
2023/05/09 05:21:28;;;;;;;18.17;11.65;;;;;;;;;;4984648;28;20187;-68
2023/05/09 05:23:53;;;;;;;23.23;12.93;;;;;;;;;;4982855;28;20266;-68
2023/05/09 05:26:18;;;;;;;16.98;11.95;;;;;;;;;;4981878;28;20559;-68
2023/05/09 05:28:43;;;;;;;17.17;11.45;;;;;;;;;;4983033;28;20179;-69
2023/05/09 05:31:09;;;;;;;21.88;11.90;;;;;;;;;;4977636;28;20607;-68
2023/05/09 05:33:34;;;;;;;21.45;11.68;;;;;;;;;;4979084;28;20175;-68
2023/05/09 05:35:59;;;;;;;17.90;11.32;;;;;;;;;;4980358;28;20195;-69
2023/05/09 05:38:24;;;;;;;21.15;12.40;;;;;;;;;;4980390;28;20267;-68
2023/05/09 05:40:50;;;;;;;16.75;11.95;;;;;;;;;;4983771;28;20350;-68
2023/05/09 05:43:15;;;;;;;20.15;11.65;;;;;;;;;;4985770;28;20184;-68
2023/05/09 05:45:40;;;;;;;19.73;12.77;;;;;;;;;;4985961;28;20212;-68
2023/05/09 05:48:05;;;;;;;19.85;12.13;;;;;;;;;;4986480;28;20623;-68
2023/05/09 05:50:31;;;;;;;17.38;11.50;;;;;;;;;;4985117;28;20290;-68
2023/05/09 05:52:56;;;;;;;24.45;12.23;;;;;;;;;;5000029;28;20183;-68
2023/05/09 05:55:21;;;;;;;19.50;12.68;;;;;;;;;;4985939;28;20704;-69
2023/05/09 05:57:47;;;;;;;19.35;12.10;;;;;;;;;;4985216;28;20183;-69
2023/05/09 06:00:13;;;;;;;19.00;11.70;;;;;;;;;;4981676;28;20273;-69
2023/05/09 06:02:41;;;;;;;20.10;11.45;;;;;;;;;;4982220;28;20183;-69
2023/05/09 06:05:07;;;;;;;18.45;11.82;;;;;;;;;;5008511;22;20792;-74
2023/05/09 06:07:32;;;;;;;24.98;13.25;;;;;;;;;;5004804;28;20707;-75
2023/05/09 06:09:57;;;;;;;20.30;12.25;;;;;;;;;;5005348;28;20206;-75
2023/05/09 06:12:22;;;;;;;18.23;12.30;;;;;;;;;;4997705;28;20210;-75
2023/05/09 06:14:48;;;;;;;20.20;12.85;;;;;;;;;;5002524;28;20286;-74
2023/05/09 06:17:13;;;;;;;24.35;15.10;;;;;;;;;;5003933;28;20313;-75
2023/05/09 06:19:38;;;;;;;19.08;12.35;;;;;;;;;;5008370;28;20187;-75
2023/05/09 06:22:03;;;;;;;19.17;13.35;;;;;;;;;;5010257;28;20201;-75
2023/05/09 06:24:28;;;;;;;20.85;12.85;;;;;;;;;;5007297;28;20200;-75
2023/05/09 06:26:54;;;;;;;22.48;12.90;;;;;;;;;;5026570;28;20657;-75
2023/05/09 06:29:19;;;;;;;19.17;11.90;;;;;;;;;;5012606;28;20645;-75
2023/05/09 06:31:44;;;;;;;21.60;12.23;;;;;;;;;;5014533;28;20194;-75
2023/05/09 06:34:10;;;;;;;17.20;11.68;;;;;;;;;;5002101;28;20203;-75
2023/05/09 06:36:35;;;;;;;18.33;12.52;;;;;;;;;;5007097;28;20200;-76
2023/05/09 06:39:00;;;;;;;22.70;12.77;;;;;;;;;;5013027;28;20184;-76
2023/05/09 06:41:26;;;;;;;19.90;12.38;;;;;;;;;;5000968;28;20179;-76
2023/05/09 06:43:51;;;;;;;22.25;12.57;;;;;;;;;;5003597;28;20187;-75
2023/05/09 06:46:17;;;;;;;19.42;12.85;;;;;;;;;;5013114;28;20626;-77
2023/05/09 06:48:42;;;;;;;16.70;11.75;;;;;;;;;;5006430;28;20671;-77
2023/05/09 06:51:08;;;;;;;19.80;12.38;;;;;;;;;;5004086;28;20457;-77
2023/05/09 06:53:33;;;;;;;18.83;13.68;;;;;;;;;;5017700;28;20721;-77
2023/05/09 06:55:58;;;;;;;20.70;12.18;;;;;;;;;;5013002;28;20259;-77
2023/05/09 06:58:24;;;;;;;18.40;11.88;;;;;;;;;;5007837;28;20194;-76
2023/05/09 07:00:50;;;;;;;18.08;11.93;;;;;;;;;;5006879;28;20556;-76
2023/05/09 07:03:15;;;;;;;18.70;12.25;;;;;;;;;;4999984;28;20305;-76
2023/05/09 07:05:40;;;;;;;19.80;12.45;;;;;;;;;;5004889;28;20595;-76
2023/05/09 07:08:05;;;;;;;21.40;12.20;;;;;;;;;;5010069;28;20179;-76
2023/05/09 07:10:31;;;;;;;21.20;12.20;;;;;;;;;;5011190;28;20195;-75
2023/05/09 07:12:56;;;;;;;18.52;11.73;;;;;;;;;;5012772;28;20183;-76
2023/05/09 07:15:21;;;;;;;17.98;11.35;;;;;;;;;;5013330;28;20232;-75
2023/05/09 07:17:46;;;;;;;16.17;11.13;;;;;;;;;;5013081;28;20210;-75
2023/05/09 07:20:11;;;;;;;20.02;11.88;;;;;;;;;;5008587;28;20258;-75
2023/05/09 07:22:37;;;;;;;19.15;11.18;;;;;;;;;;5012433;28;20183;-75
2023/05/09 07:25:02;;;;;;;18.30;11.90;;;;;;;;;;5012092;28;20289;-75
2023/05/09 07:27:27;;;;;;;21.17;12.27;;;;;;;;;;5007645;28;20202;-75
2023/05/09 07:29:52;;;;;;;18.00;12.02;;;;;;;;;;5012996;28;20202;-74
2023/05/09 07:32:18;;;;;;;14.82;10.43;;;;;;;;;;5004843;28;20638;-75
2023/05/09 07:34:43;;;;;;;20.63;11.65;;;;;;;;;;4997557;28;20204;-75
2023/05/09 07:37:08;;;;;;;18.75;11.48;;;;;;;;;;5005278;28;20182;-75
2023/05/09 07:39:34;;;;;;;14.90;11.05;;;;;;;;;;5004560;28;20190;-76
2023/05/09 07:41:59;;;;;;;18.50;10.43;;;;;;;;;;5007506;28;20179;-75
2023/05/09 07:44:24;;;;;;;16.60;11.18;;;;;;;;;;5011265;28;20641;-75
2023/05/09 07:46:49;;;;;;;19.35;10.55;;;;;;;;;;5010424;28;20921;-75
2023/05/09 07:49:15;;;;;;;17.63;11.27;;;;;;;;;;5006228;28;20291;-75
2023/05/09 07:51:40;;;;;;;22.55;13.00;;;;;;;;;;4997142;28;20187;-75
2023/05/09 07:54:05;;;;;;;17.98;11.35;;;;;;;;;;4999482;28;20926;-75
2023/05/09 07:56:31;;;;;;;16.65;9.95;;;;;;;;;;5002965;28;20187;-75
2023/05/09 07:58:56;;;;;;;16.70;10.07;;;;;;;;;;5008119;28;20184;-75
2023/05/09 08:01:21;;;;;;;15.32;9.82;;;;;;;;;;5020906;28;20410;-75
2023/05/09 08:03:46;;;;;;;16.95;10.27;;;;;;;;;;5007506;28;20187;-75
2023/05/09 08:06:11;;;;;;;13.25;8.95;;;;;;;;;;4997267;28;20214;-75
2023/05/09 08:08:36;;;;;;;13.95;8.98;;;;;;;;;;5005036;28;20645;-75
2023/05/09 08:11:03;;;;;;;12.07;8.13;;;;;;;;;;5001902;28;20183;-75
2023/05/09 08:13:28;;;;;;;12.77;9.00;;;;;;;;;;4992882;28;20201;-75
2023/05/09 08:15:53;;;;;;;13.93;8.65;;;;;;;;;;5003853;28;20197;-75
2023/05/09 08:18:19;;;;;;;14.68;8.70;;;;;;;;;;5003783;28;20615;-75
2023/05/09 08:20:44;;;;;;;11.05;7.68;;;;;;;;;;5006233;28;20183;-75
2023/05/09 08:23:09;;;;;;;13.13;7.80;;;;;;;;;;5001521;28;20646;-75
2023/05/09 08:25:35;;;;;;;11.20;8.02;;;;;;;;;;5004271;28;20205;-75
2023/05/09 08:28:00;;;;;;;12.55;7.50;;;;;;;;;;4997661;28;20211;-73
2023/05/09 08:30:28;;;;;;;10.48;7.78;;;;;;;;;;4991661;28;20233;-74
2023/05/09 08:32:53;;;;;;;10.35;7.03;;;;;;;;;;4997127;28;20191;-74
2023/05/09 08:35:18;;;;;;;10.70;7.50;;;;;;;;;;4997269;28;20199;-74
2023/05/09 08:37:43;;;;;;;11.93;7.88;;;;;;;;;;5001003;28;20179;-75
2023/05/09 08:40:09;;;;;;;10.70;6.90;;;;;;;;;;4997348;28;20254;-74
2023/05/09 08:42:35;;;;;;;11.05;7.95;;;;;;;;;;4998326;28;20259;-74
2023/05/09 08:45:05;;;;;;;13.93;8.75;;;;;;;;;;5001064;28;20278;-73
2023/05/09 08:47:33;;;;;;;10.77;8.43;;;;;;;;;;4998066;28;20228;-74
2023/05/09 08:49:58;;;;;;;9.25;7.32;;;;;;;;;;5002171;28;20217;-74
2023/05/09 08:52:23;;;;;;;8.88;7.47;;;;;;;;;;5003052;28;20183;-74
2023/05/09 08:54:49;;;;;;;11.68;8.02;;;;;;;;;;4999495;28;20202;-74
2023/05/09 08:57:15;;;;;;;8.77;7.40;;;;;;;;;;5001902;28;20277;-74
2023/05/09 08:59:41;;;;;;;11.57;7.97;;;;;;;;;;5005887;28;20278;-74
2023/05/09 09:02:06;;;;;;;12.93;8.07;;;;;;;;;;5000565;28;20633;-74
2023/05/09 09:04:32;;;;;;;9.80;7.78;;;;;;;;;;4998970;28;20263;-73
2023/05/09 09:06:58;;;;;;;13.48;8.05;;;;;;;;;;4998511;28;20195;-74
2023/05/09 09:09:24;;;;;;;10.60;7.90;;;;;;;;;;4993896;28;20212;-75
2023/05/09 09:11:49;;;;;;;13.45;8.43;;;;;;;;;;4999031;28;20183;-74
2023/05/09 09:14:19;;;;;;;10.60;7.93;;;;;;;;;;5000790;28;20200;-73
2023/05/09 09:16:46;;;;;;;10.98;8.57;;;;;;;;;;4999006;28;20665;-74
2023/05/09 09:19:15;;;;;;;9.25;7.50;;;;;;;;;;4996161;28;20188;-74
2023/05/09 09:21:41;;;;;;;12.63;7.28;;;;;;;;;;4999581;28;20183;-73
2023/05/09 09:24:06;;;;;;;8.18;7.35;;;;;;;;;;4999687;28;20202;-73
2023/05/09 09:26:31;;;;;;;10.43;7.90;;;;;;;;;;4996962;28;20641;-73
2023/05/09 09:28:57;;;;;;;9.98;7.38;;;;;;;;;;5003391;28;20202;-73
2023/05/09 09:31:23;;;;;;;10.80;7.93;;;;;;;;;;4996931;28;20191;-73
2023/05/09 09:33:49;;;;;;;10.15;7.55;;;;;;;;;;5008344;28;20186;-73
2023/05/09 09:36:14;;;;;;;9.27;7.43;;;;;;;;;;4997385;28;20180;-73
2023/05/09 09:38:40;;;;;;;9.48;8.07;;;;;;;;;;4998305;28;20177;-73
2023/05/09 09:41:05;;;;;;;13.10;7.72;;;;;;;;;;4999872;28;20265;-73
2023/05/09 09:43:31;;;;;;;11.90;8.32;;;;;;;;;;5002405;28;20261;-72
2023/05/09 09:45:59;;;;;;;16.92;8.10;;;;;;;;;;4993487;28;20196;-73
2023/05/09 09:48:34;;;;;;;7.15;6.18;;;;;;;;;;5001593;28;20226;-72
2023/05/09 09:51:07;;;;;;;11.73;7.30;;;;;;;;;;4997576;28;20233;-72
2023/05/09 09:53:38;;;;;;;9.13;6.68;;;;;;;;;;4993919;28;20183;-73
2023/05/09 09:56:03;;;;;;;10.13;6.47;;;;;;;;;;5008045;28;21898;-73
2023/05/09 09:58:28;;;;;;;8.40;6.90;;;;;;;;;;4999382;28;20211;-72
2023/05/09 10:01:04;;;;;;;8.88;6.53;;;;;;;;;;5010731;28;20179;-73
2023/05/09 10:03:36;;;;;;;7.40;6.03;;;;;;;;;;4997731;28;20201;-73
2023/05/09 10:06:02;;;;;;;7.53;5.38;;;;;;;;;;5002213;28;20203;-73
2023/05/09 10:08:27;;;;;;;7.38;5.97;;;;;;;;;;5006275;28;20225;-73
2023/05/09 10:10:52;;;;;;;8.55;6.72;;;;;;;;;;5003757;28;20270;-73
2023/05/09 10:13:17;;;;;;;8.25;6.10;;;;;;;;;;5001773;28;20241;-73
2023/05/09 10:15:43;;;;;;;8.65;6.63;;;;;;;;;;5004374;28;20206;-73
2023/05/09 10:18:09;;;;;;;8.48;6.45;;;;;;;;;;5006969;28;20736;-73
2023/05/09 10:20:38;;;;;;;7.45;5.65;;;;;;;;;;4993016;28;20274;-73
2023/05/09 10:23:05;;;;;;;11.93;6.72;;;;;;;;;;4994010;28;20198;-73
2023/05/09 10:25:30;;;;;;;7.63;6.05;;;;;;;;;;5009206;28;20266;-73
2023/05/09 10:27:58;;;;;;;7.97;5.63;;;;;;;;;;5002934;28;20175;-73
2023/05/09 10:30:29;;;;;;;8.35;5.95;;;;;;;;;;5014191;28;20688;-73
2023/05/09 10:33:02;;;;;;;8.60;6.45;;;;;;;;;;5003947;28;20787;-73
2023/05/09 10:35:29;;;;;;;6.78;5.90;;;;;;;;;;5005100;28;20254;-73
2023/05/09 10:37:58;;;;;;;8.02;6.43;;;;;;;;;;4999534;28;20176;-73
2023/05/09 10:40:23;;;;;;;8.35;6.50;;;;;;;;;;5001986;28;20194;-73
2023/05/09 10:42:48;;;;;;;8.73;6.35;;;;;;;;;;5004454;28;20247;-73
2023/05/09 10:45:13;;;;;;;7.93;6.20;;;;;;;;;;5010957;28;20779;-73
2023/05/09 10:47:39;;;;;;;9.40;6.80;;;;;;;;;;5004734;28;20191;-73
2023/05/09 10:50:09;;;;;;;9.13;7.05;;;;;;;;;;5007346;28;20245;-73
2023/05/09 10:52:34;;;;;;;8.18;6.25;;;;;;;;;;5005367;28;20650;-73
2023/05/09 10:55:00;;;;;;;9.10;6.22;;;;;;;;;;4999299;28;20206;-73
2023/05/09 10:57:27;;;;;;;7.57;5.70;;;;;;;;;;4997777;28;20708;-73
2023/05/09 10:59:53;;;;;;;13.35;7.25;;;;;;;;;;4998650;28;20233;-73
2023/05/09 11:02:19;;;;;;;10.45;7.50;;;;;;;;;;5005524;28;20192;-72
2023/05/09 11:04:44;;;;;;;10.73;7.30;;;;;;;;;;4991433;28;20214;-73
2023/05/09 11:07:25;;;;;;;9.65;6.65;;;;;;;;;;5000144;28;20193;-72
2023/05/09 11:10:06;;;;;;;8.55;7.00;;;;;;;;;;5006866;28;20222;-73
2023/05/09 11:12:31;;;;;;;10.45;6.60;;;;;;;;;;5002131;28;20179;-73
2023/05/09 11:15:03;;;;;;;8.18;7.00;;;;;;;;;;5013980;28;20282;-73
2023/05/09 11:17:30;;;;;;;8.18;6.80;;;;;;;;;;5000944;28;20673;-73
2023/05/09 11:19:56;;;;;;;9.07;6.22;;;;;;;;;;5010531;28;20270;-72
2023/05/09 11:22:26;;;;;;;7.45;6.68;;;;;;;;;;5003674;28;20183;-73
2023/05/09 11:25:03;;;;;;;10.10;6.50;;;;;;;;;;5002358;28;20210;-73
2023/05/09 11:27:33;;;;;;;8.73;6.10;;;;;;;;;;5000592;28;20553;-74
2023/05/09 11:30:03;;;;;;;8.13;6.45;;;;;;;;;;5010532;28;20708;-73
2023/05/09 11:32:32;;;;;;;8.30;5.93;;;;;;;;;;5006307;28;20179;-73
2023/05/09 11:35:15;;;;;;;9.07;6.55;;;;;;;;;;4998954;28;20738;-72
2023/05/09 11:37:51;;;;;;;10.48;6.38;;;;;;;;;;5003695;28;20206;-73
2023/05/09 11:40:19;;;;;;;6.82;5.97;;;;;;;;;;5002935;28;20179;-72
2023/05/09 11:42:48;;;;;;;8.55;6.43;;;;;;;;;;5004477;28;20220;-73
2023/05/09 11:45:14;;;;;;;7.50;6.32;;;;;;;;;;5002913;28;20670;-73
2023/05/09 11:47:39;;;;;;;9.02;5.95;;;;;;;;;;5003054;28;20187;-73
2023/05/09 11:50:06;;;;;;;7.03;5.40;;;;;;;;;;4999003;28;20249;-73
2023/05/09 11:52:32;;;;;;;9.02;5.93;;;;;;;;;;4991124;28;20183;-73
2023/05/09 11:54:58;;;;;;;7.43;5.32;;;;;;;;;;4994380;28;20401;-72
2023/05/09 11:57:24;;;;;;;7.85;6.32;;;;;;;;;;5000491;28;20229;-73
2023/05/09 11:59:49;;;;;;;8.05;6.93;;;;;;;;;;5007718;28;20171;-73
2023/05/09 12:02:14;;;;;;;8.25;5.95;;;;;;;;;;5007989;28;20185;-73
2023/05/09 12:04:39;;;;;;;7.30;5.82;;;;;;;;;;5013002;23;20233;-67
2023/05/09 12:07:05;;;;;;;7.95;5.43;;;;;;;;;;5011349;28;20207;-67
2023/05/09 12:09:36;;;;;;;7.55;6.25;;;;;;;;;;5011737;28;20210;-67
2023/05/09 12:12:07;;;;;;;9.43;6.25;;;;;;;;;;5008752;28;20179;-68
2023/05/09 12:14:33;;;;;;;8.13;6.25;;;;;;;;;;5012406;28;20202;-68
2023/05/09 12:16:58;;;;;;;6.70;5.47;;;;;;;;;;5002498;28;20261;-68
2023/05/09 12:19:24;;;;;;;7.50;5.85;;;;;;;;;;5011726;28;20262;-68
2023/05/09 12:21:53;;;;;;;7.82;5.47;;;;;;;;;;5007885;28;20197;-68
2023/05/09 12:24:19;;;;;;;7.63;5.97;;;;;;;;;;5005818;28;20595;-68
2023/05/09 12:26:44;;;;;;;7.78;6.25;;;;;;;;;;5002033;28;20188;-68
2023/05/09 12:29:10;;;;;;;8.48;6.13;;;;;;;;;;5004523;28;20200;-68
2023/05/09 12:31:36;;;;;;;6.38;5.72;;;;;;;;;;5004265;28;20175;-69
2023/05/09 12:34:01;;;;;;;7.40;6.00;;;;;;;;;;5009504;28;20167;-68
2023/05/09 12:36:26;;;;;;;7.35;5.85;;;;;;;;;;5010988;28;20641;-68
2023/05/09 12:38:52;;;;;;;8.00;5.97;;;;;;;;;;5007787;28;20167;-68
2023/05/09 12:41:17;;;;;;;6.78;6.03;;;;;;;;;;5010250;28;20179;-68
2023/05/09 12:43:46;;;;;;;6.20;5.57;;;;;;;;;;5005928;28;20668;-68
2023/05/09 12:46:11;;;;;;;7.63;5.50;;;;;;;;;;5007333;28;20191;-68
2023/05/09 12:48:37;;;;;;;8.63;5.60;;;;;;;;;;5005577;28;20174;-68
2023/05/09 12:51:03;;;;;;;8.68;6.43;;;;;;;;;;4992250;28;20657;-68
2023/05/09 12:53:31;;;;;;;6.75;6.05;;;;;;;;;;5002056;28;20183;-68
2023/05/09 12:56:04;;;;;;;8.60;5.22;;;;;;;;;;5003442;28;20349;-68
2023/05/09 12:58:30;;;;;;;8.40;6.20;;;;;;;;;;5003187;28;20201;-68
2023/05/09 13:00:55;;;;;;;5.97;5.30;;;;;;;;;;5006686;28;20273;-68
2023/05/09 13:03:24;;;;;;;7.43;5.97;;;;;;;;;;5007570;28;20189;-68
2023/05/09 13:05:56;;;;;;;5.90;5.18;;;;;;;;;;5002673;28;20658;-68
2023/05/09 13:08:22;;;;;;;6.47;4.82;;;;;;;;;;5002029;28;20181;-68
2023/05/09 13:10:47;;;;;;;6.63;5.25;;;;;;;;;;5002743;28;20202;-68
2023/05/09 13:13:15;;;;;;;8.20;5.70;;;;;;;;;;5006738;28;20225;-68
2023/05/09 13:15:41;;;;;;;4.97;4.47;;;;;;;;;;5004677;28;20202;-69
2023/05/09 13:18:07;;;;;;;6.47;4.93;;;;;;;;;;5002339;28;20218;-69
2023/05/09 13:20:32;;;;;;;5.20;4.70;;;;;;;;;;5004144;28;20178;-69
2023/05/09 13:22:58;;;;;;;5.65;4.63;;;;;;;;;;5006672;28;20652;-69
2023/05/09 13:25:23;;;;;;;6.95;5.43;;;;;;;;;;4999710;28;20669;-69
2023/05/09 13:27:48;;;;;;;6.15;4.88;;;;;;;;;;5004856;28;20206;-69
2023/05/09 13:30:14;;;;;;;5.38;4.50;;;;;;;;;;5007561;28;20206;-69
2023/05/09 13:32:39;;;;;;;6.53;4.90;;;;;;;;;;5009922;28;20600;-69
2023/05/09 13:35:06;;;;;;;7.43;6.10;;;;;;;;;;5006526;28;20225;-69
2023/05/09 13:37:32;;;;;;;5.90;5.30;;;;;;;;;;5000825;28;20167;-69
2023/05/09 13:39:57;;;;;;;5.60;4.80;;;;;;;;;;5001509;28;20236;-69
2023/05/09 13:42:22;;;;;;;6.53;5.50;;;;;;;;;;5006596;28;20183;-69
2023/05/09 13:44:48;;;;;;;6.13;4.68;;;;;;;;;;5003878;28;20450;-69
2023/05/09 13:47:13;;;;;;;8.77;5.55;;;;;;;;;;4997267;28;20650;-69
2023/05/09 13:49:38;;;;;;;4.68;4.25;;;;;;;;;;5004511;28;20218;-69
2023/05/09 13:52:04;;;;;;;5.85;4.90;;;;;;;;;;4999966;28;20179;-69
2023/05/09 13:54:33;;;;;;;6.40;4.93;;;;;;;;;;5004018;28;20195;-69
2023/05/09 13:57:00;;;;;;;8.20;6.25;;;;;;;;;;5006011;28;20673;-69
2023/05/09 13:59:25;;;;;;;7.53;4.40;;;;;;;;;;5004079;28;20234;-68
2023/05/09 14:01:50;;;;;;;8.48;4.75;;;;;;;;;;5008380;28;20183;-69
2023/05/09 14:04:15;;;;;;;4.72;4.22;;;;;;;;;;5010300;28;20234;-68
2023/05/09 14:06:46;;;;;;;4.90;4.32;;;;;;;;;;5010298;28;20672;-69
2023/05/09 14:09:12;;;;;;;4.95;4.50;;;;;;;;;;5001705;28;20634;-68
2023/05/09 14:11:37;;;;;;;5.20;4.40;;;;;;;;;;5008653;28;20221;-69
2023/05/09 14:14:02;;;;;;;8.20;4.43;;;;;;;;;;5010715;28;20194;-68
2023/05/09 14:16:27;;;;;;;5.22;4.68;;;;;;;;;;5008344;28;20649;-68
2023/05/09 14:18:52;;;;;;;4.97;4.47;;;;;;;;;;5007923;28;20183;-68
2023/05/09 14:21:18;;;;;;;5.00;4.10;;;;;;;;;;5007825;28;20186;-68
2023/05/09 14:23:43;;;;;;;3.78;3.38;;;;;;;;;;5011653;28;20179;-68